LKPR - Praha Ruzyně, Česká republika
Vzdálenost od této stanice: ZSZ 177km
Aktualizováno: 11.12.2018 03:00
 
Teplota vzduchu: 1°C
Chlad větru: -4°C
Vítr: ZJZ 26 km/h
Rosný bod: -1°C
Vlhkost vzduchu: 87%
Tlak vzduchu: 1012 hPa
Stav počasí: Slabý sníh, Déšť
Oblačnost: zataženo
Viditelnost: 10 km
Detaily oblačnosti: skoro jasno 305 m
zataženo 914 m
2018/12/11 02:00 LKPR 110200Z 25014KT 9999 -SNRA FEW010 OVC030 01/M01 Q1012 NOSIG
LKTB - Brno Tuřany, Česká republika
Vzdálenost od této stanice: VJV 28km
Aktualizováno: 11.12.2018 03:00
 
Teplota vzduchu: 0°C
Chlad větru: -3°C
Vítr: JZ 9 km/h
Rosný bod: -2°C
Vlhkost vzduchu: 87%
Tlak vzduchu: 1012 hPa
Oblačnost: skoro zataženo
Viditelnost: 10 km
Detaily oblačnosti: oblačno 792 m
skoro zataženo 1097 m
2018/12/11 02:00 LKTB 110200Z 22005KT 9999 SCT026 BKN036 00/M02 Q1012 NOSIG
 
LKKV - Karlovy Vary, Česká republika
Vzdálenost od této stanice: SZ 268km
Aktualizováno: 11.12.2018 03:00
 
Teplota vzduchu: 0°C
Chlad větru: -6°C
Vítr: Z 26 km/h
Rosný bod: -1°C
Vlhkost vzduchu: 93%
Tlak vzduchu: 1012 hPa
Stav počasí: slabý sníh
Oblačnost: skoro zataženo
Viditelnost: 5 km
Detaily oblačnosti: skoro zataženo 122 m
skoro zataženo 457 m
2018/12/11 02:00 LKKV 110200Z 26014KT 5000 -SN BKN004 BKN015 M00/M01 Q1012
LKMT - Ostrava Mošnov, Česká republika
Vzdálenost od této stanice: VSV 136km
Aktualizováno: 11.12.2018 03:00
 
Teplota vzduchu: 1°C
Chlad větru: -4°C
Vítr: JJZ 24 km/h
Rosný bod: -2°C
Vlhkost vzduchu: 81%
Tlak vzduchu: 1010 hPa
Stav počasí: Jasno
Oblačnost: jasná obloha
Viditelnost: více než 10 km
2018/12/11 02:00 LKMT 110200Z 21013KT CAVOK 01/M02 Q1010 TEMPO 3000 SN
 
LKPD - Pardubice, Česká republika
Vzdálenost od této stanice: SSZ 97km
Aktualizováno: 11.12.2018 03:00
 
Teplota vzduchu: 1°C
Chlad větru: -4°C
Vítr: ZJZ 22 km/h
Rosný bod: 0°C
Vlhkost vzduchu: 93%
Tlak vzduchu: 1011 hPa
Stav počasí: déšť
Oblačnost: zataženo
Viditelnost: 10 km
Detaily oblačnosti: zataženo 518 m
2018/12/11 02:00 LKPD 110200Z 25012KT 9999 RA OVC017 01/M00 Q1011 RMK WHT
LKKB - Praha Kbely, Česká republika
Vzdálenost od této stanice: SZ 162km
Aktualizováno: 11.12.2018 03:00
 
Teplota vzduchu: 2°C
Chlad větru: -3°C
Vítr: Z 30 km/h
Rosný bod: -1°C
Vlhkost vzduchu: 81%
Tlak vzduchu: 1011 hPa
Stav počasí: slabý déšť
Oblačnost: zataženo
Viditelnost: 10 km
Detaily oblačnosti: skoro zataženo 823 m
zataženo 1311 m
2018/12/11 02:00 LKKB 110200Z 26016KT 9999 -RA BKN027 OVC043 02/M01 Q1011
 
LKCV - Čáslav, Česká republika
Vzdálenost od této stanice: SZ 103km
Aktualizováno: 11.12.2018 03:00
 
Teplota vzduchu: 2°C
Chlad větru: -3°C
Vítr: ZJZ 26 km/h
Rosný bod: 0°C
Vlhkost vzduchu: 87%
Tlak vzduchu: 1011 hPa
Stav počasí: slabý déšť
Oblačnost: zataženo
Viditelnost: 10 km
Detaily oblačnosti: oblačno 914 m
zataženo 1219 m
2018/12/11 02:00 LKCV 110200Z 25014KT 9999 -RA SCT030 OVC040 02/M00 Q1011 RMK BLACK
LKNA - Náměšť n. Osl., Česká republika
Vzdálenost od této stanice: ZJZ 19km
Aktualizováno: 11.12.2018 03:00
 
Teplota vzduchu: 1°C
Chlad větru: -4°C
Vítr: ZJZ 20 km/h
Rosný bod: -3°C
Vlhkost vzduchu: 75%
Tlak vzduchu: 1011 hPa
Oblačnost: skoro zataženo
Viditelnost: 10 km
Detaily oblačnosti: skoro jasno 1158 m
skoro zataženo 1341 m
2018/12/11 02:00 LKNA 110200Z 25011KT 9999 FEW038 BKN044 01/M03 Q1011 RMK BLU
 
LKLN - Plzeň Líně, Česká republika
Vzdálenost od této stanice: Z 228km
Aktualizováno: 11.12.2018 03:00
 
Teplota vzduchu: 1°C
Chlad větru: -2°C
Vítr: ZJZ 11 km/h
Rosný bod: -1°C
Vlhkost vzduchu: 87%
Tlak vzduchu: 1015 hPa
Oblačnost: skoro zataženo
Viditelnost: 10 km
Detaily oblačnosti: skoro jasno 640 m
oblačno 792 m
skoro zataženo 4572 m
2018/12/11 02:00 LKLN 110200Z AUTO 25006KT 220V300 9999 FEW021 SCT026 BKN150 01/M01 Q1015
LKVO - Vodochody, Česká republika
Vzdálenost od této stanice: SZ 177km
Aktualizováno: 10.12.2018 15:00
Není aktuální
 
Teplota vzduchu: 5°C
Chlad větru: 0°C
Vítr: Z 33 km/h
Rosný bod: -2°C
Vlhkost vzduchu: 61%
Tlak vzduchu: 1013 hPa
Oblačnost: skoro jasno
Viditelnost: 10 km
Detaily oblačnosti: skoro jasno 1006 m
2018/12/10 14:00 LKVO 101400Z 28018KT 9999 FEW033 05/M02 Q1013